sensor_id;sensor_type;location;lat;lon;timestamp;pressure;altitude;pressure_sealevel;temperature;humidity
33151;BME280;19508;42.578;23.416;2023-04-07T00:00:17;93410.34;;;3.13;46.64
33151;BME280;19508;42.578;23.416;2023-04-07T00:02:43;93416.16;;;3.03;46.94
33151;BME280;19508;42.578;23.416;2023-04-07T00:05:08;93412.50;;;2.97;46.61
33151;BME280;19508;42.578;23.416;2023-04-07T00:07:33;93416.38;;;3.01;47.23
33151;BME280;19508;42.578;23.416;2023-04-07T00:10:00;93410.59;;;2.79;46.87
33151;BME280;19508;42.578;23.416;2023-04-07T00:12:26;93412.97;;;2.88;47.10
33151;BME280;19508;42.578;23.416;2023-04-07T00:14:51;93413.97;;;2.93;47.32
33151;BME280;19508;42.578;23.416;2023-04-07T00:17:16;93411.41;;;2.80;47.64
33151;BME280;19508;42.578;23.416;2023-04-07T00:19:42;93405.88;;;2.81;46.64
33151;BME280;19508;42.578;23.416;2023-04-07T00:22:08;93406.75;;;2.75;46.88
33151;BME280;19508;42.578;23.416;2023-04-07T00:24:33;93406.25;;;2.85;46.45
33151;BME280;19508;42.578;23.416;2023-04-07T00:26:59;93402.47;;;2.74;46.28
33151;BME280;19508;42.578;23.416;2023-04-07T00:29:25;93407.66;;;2.88;45.79
33151;BME280;19508;42.578;23.416;2023-04-07T00:31:50;93400.13;;;2.85;45.98
33151;BME280;19508;42.578;23.416;2023-04-07T00:34:15;93406.00;;;2.93;45.76
33151;BME280;19508;42.578;23.416;2023-04-07T00:36:41;93408.69;;;2.87;45.59
33151;BME280;19508;42.578;23.416;2023-04-07T00:39:06;93401.44;;;3.00;46.08
33151;BME280;19508;42.578;23.416;2023-04-07T00:41:33;93410.38;;;3.06;45.99
33151;BME280;19508;42.578;23.416;2023-04-07T00:44:00;93390.75;;;2.82;46.88
33151;BME280;19508;42.578;23.416;2023-04-07T00:46:25;93401.25;;;2.70;47.72
33151;BME280;19508;42.578;23.416;2023-04-07T00:48:50;93408.13;;;2.53;48.03
33151;BME280;19508;42.578;23.416;2023-04-07T00:51:18;93401.81;;;2.47;47.73
33151;BME280;19508;42.578;23.416;2023-04-07T00:53:44;93399.34;;;2.52;47.85
33151;BME280;19508;42.578;23.416;2023-04-07T00:56:10;93402.22;;;2.51;48.66
33151;BME280;19508;42.578;23.416;2023-04-07T00:58:35;93401.41;;;2.50;48.54
33151;BME280;19508;42.578;23.416;2023-04-07T01:01:08;93405.31;;;2.48;48.83
33151;BME280;19508;42.578;23.416;2023-04-07T01:06:16;93400.63;;;2.43;49.17
33151;BME280;19508;42.578;23.416;2023-04-07T01:08:53;93400.53;;;2.25;48.57
33151;BME280;19508;42.578;23.416;2023-04-07T01:14:33;93392.91;;;2.35;48.05
33151;BME280;19508;42.578;23.416;2023-04-07T01:17:02;93395.69;;;2.47;48.28
33151;BME280;19508;42.578;23.416;2023-04-07T01:19:32;93405.34;;;2.41;48.06
33151;BME280;19508;42.578;23.416;2023-04-07T01:21:59;93395.91;;;2.45;47.42
33151;BME280;19508;42.578;23.416;2023-04-07T01:27:20;93393.13;;;2.65;47.41
33151;BME280;19508;42.578;23.416;2023-04-07T01:29:49;93393.09;;;2.40;47.25
33151;BME280;19508;42.578;23.416;2023-04-07T01:32:17;93392.34;;;2.58;47.92
33151;BME280;19508;42.578;23.416;2023-04-07T01:34:46;93391.94;;;2.54;47.98
33151;BME280;19508;42.578;23.416;2023-04-07T01:37:13;93392.84;;;2.48;48.80
33151;BME280;19508;42.578;23.416;2023-04-07T01:39:40;93392.16;;;2.21;50.74
33151;BME280;19508;42.578;23.416;2023-04-07T01:42:06;93390.94;;;2.24;50.22
33151;BME280;19508;42.578;23.416;2023-04-07T01:44:33;93396.66;;;2.21;50.49
33151;BME280;19508;42.578;23.416;2023-04-07T01:46:59;93390.63;;;2.01;51.29
33151;BME280;19508;42.578;23.416;2023-04-07T01:49:25;93389.16;;;2.05;50.84
33151;BME280;19508;42.578;23.416;2023-04-07T01:51:52;93391.19;;;2.16;50.06
33151;BME280;19508;42.578;23.416;2023-04-07T01:54:19;93385.22;;;2.20;50.20
33151;BME280;19508;42.578;23.416;2023-04-07T01:56:45;93380.78;;;2.08;51.51
33151;BME280;19508;42.578;23.416;2023-04-07T01:59:10;93367.16;;;1.97;49.88
33151;BME280;19508;42.578;23.416;2023-04-07T02:01:36;93371.06;;;2.33;48.06
33151;BME280;19508;42.578;23.416;2023-04-07T02:06:46;93383.22;;;2.16;48.46
33151;BME280;19508;42.578;23.416;2023-04-07T02:09:15;93379.44;;;2.30;48.22
33151;BME280;19508;42.578;23.416;2023-04-07T02:11:43;93371.06;;;2.33;47.36
33151;BME280;19508;42.578;23.416;2023-04-07T02:14:10;93377.22;;;2.59;47.45
33151;BME280;19508;42.578;23.416;2023-04-07T02:16:38;93361.34;;;2.45;47.55
33151;BME280;19508;42.578;23.416;2023-04-07T02:19:05;93367.44;;;2.52;46.63
33151;BME280;19508;42.578;23.416;2023-04-07T02:21:34;93372.69;;;2.66;46.40
33151;BME280;19508;42.578;23.416;2023-04-07T02:24:01;93372.06;;;2.64;46.55
33151;BME280;19508;42.578;23.416;2023-04-07T02:26:27;93374.00;;;2.50;47.76
33151;BME280;19508;42.578;23.416;2023-04-07T02:28:52;93369.16;;;2.40;47.46
33151;BME280;19508;42.578;23.416;2023-04-07T02:31:18;93369.91;;;2.47;47.35
33151;BME280;19508;42.578;23.416;2023-04-07T02:33:43;93364.34;;;2.55;46.88
33151;BME280;19508;42.578;23.416;2023-04-07T02:36:08;93370.69;;;2.54;46.73
33151;BME280;19508;42.578;23.416;2023-04-07T02:38:34;93369.00;;;2.35;47.87
33151;BME280;19508;42.578;23.416;2023-04-07T02:40:59;93371.66;;;2.35;47.67
33151;BME280;19508;42.578;23.416;2023-04-07T02:43:25;93367.81;;;2.31;48.67
33151;BME280;19508;42.578;23.416;2023-04-07T02:45:50;93368.22;;;2.28;48.49
33151;BME280;19508;42.578;23.416;2023-04-07T02:48:15;93367.63;;;2.26;48.54
33151;BME280;19508;42.578;23.416;2023-04-07T02:50:41;93362.44;;;2.06;50.55
33151;BME280;19508;42.578;23.416;2023-04-07T02:53:06;93368.22;;;1.90;51.55
33151;BME280;19508;42.578;23.416;2023-04-07T02:55:32;93364.00;;;1.76;51.11
33151;BME280;19508;42.578;23.416;2023-04-07T02:57:57;93380.13;;;1.74;52.57
33151;BME280;19508;42.578;23.416;2023-04-07T03:00:24;93378.28;;;1.75;51.63
33151;BME280;19508;42.578;23.416;2023-04-07T03:02:50;93385.81;;;1.78;51.58
33151;BME280;19508;42.578;23.416;2023-04-07T03:05:15;93380.91;;;1.81;52.12
33151;BME280;19508;42.578;23.416;2023-04-07T03:07:40;93381.56;;;1.70;52.83
33151;BME280;19508;42.578;23.416;2023-04-07T03:10:06;93379.41;;;1.40;53.54
33151;BME280;19508;42.578;23.416;2023-04-07T03:12:32;93388.56;;;1.45;54.45
33151;BME280;19508;42.578;23.416;2023-04-07T03:14:57;93375.97;;;1.27;54.64
33151;BME280;19508;42.578;23.416;2023-04-07T03:17:22;93393.53;;;1.21;55.79
33151;BME280;19508;42.578;23.416;2023-04-07T03:19:48;93377.59;;;1.28;55.75
33151;BME280;19508;42.578;23.416;2023-04-07T03:22:13;93398.66;;;1.16;56.62
33151;BME280;19508;42.578;23.416;2023-04-07T03:24:39;93392.94;;;1.06;56.29
33151;BME280;19508;42.578;23.416;2023-04-07T03:27:05;93394.00;;;0.78;56.42
33151;BME280;19508;42.578;23.416;2023-04-07T03:29:30;93399.47;;;0.83;56.29
33151;BME280;19508;42.578;23.416;2023-04-07T03:31:56;93397.47;;;0.86;57.63
33151;BME280;19508;42.578;23.416;2023-04-07T03:34:21;93389.50;;;0.52;58.49
33151;BME280;19508;42.578;23.416;2023-04-07T03:36:46;93384.19;;;0.59;59.23
33151;BME280;19508;42.578;23.416;2023-04-07T03:39:12;93386.03;;;0.65;58.82
33151;BME280;19508;42.578;23.416;2023-04-07T03:41:37;93394.16;;;0.50;59.11
33151;BME280;19508;42.578;23.416;2023-04-07T03:44:03;93404.97;;;0.49;59.79
33151;BME280;19508;42.578;23.416;2023-04-07T03:46:28;93398.25;;;0.53;60.12
33151;BME280;19508;42.578;23.416;2023-04-07T03:48:53;93399.47;;;0.57;58.65
33151;BME280;19508;42.578;23.416;2023-04-07T03:51:19;93415.59;;;0.62;59.19
33151;BME280;19508;42.578;23.416;2023-04-07T03:53:45;93405.19;;;0.67;59.19
33151;BME280;19508;42.578;23.416;2023-04-07T03:56:10;93408.03;;;0.59;59.83
33151;BME280;19508;42.578;23.416;2023-04-07T03:58:36;93408.63;;;0.41;60.17
33151;BME280;19508;42.578;23.416;2023-04-07T04:01:02;93410.69;;;0.46;60.76
33151;BME280;19508;42.578;23.416;2023-04-07T04:03:27;93398.66;;;0.37;60.74
33151;BME280;19508;42.578;23.416;2023-04-07T04:05:54;93397.41;;;0.33;60.76
33151;BME280;19508;42.578;23.416;2023-04-07T04:08:19;93408.44;;;0.36;61.22
33151;BME280;19508;42.578;23.416;2023-04-07T04:10:45;93410.50;;;0.54;60.28
33151;BME280;19508;42.578;23.416;2023-04-07T04:13:10;93398.66;;;0.37;60.16
33151;BME280;19508;42.578;23.416;2023-04-07T04:15:36;93412.09;;;0.42;60.60
33151;BME280;19508;42.578;23.416;2023-04-07T04:18:01;93410.69;;;0.46;60.61
33151;BME280;19508;42.578;23.416;2023-04-07T04:20:26;93413.34;;;0.59;60.67
33151;BME280;19508;42.578;23.416;2023-04-07T04:22:52;93398.66;;;0.50;60.40
33151;BME280;19508;42.578;23.416;2023-04-07T04:25:17;93420.28;;;0.67;60.31
33151;BME280;19508;42.578;23.416;2023-04-07T04:27:43;93412.72;;;0.83;59.92
33151;BME280;19508;42.578;23.416;2023-04-07T04:30:08;93416.22;;;0.91;59.44
33151;BME280;19508;42.578;23.416;2023-04-07T04:32:34;93418.63;;;1.25;58.65
33151;BME280;19508;42.578;23.416;2023-04-07T04:35:00;93431.28;;;1.23;58.26
33151;BME280;19508;42.578;23.416;2023-04-07T04:37:25;93429.19;;;1.45;57.66
33151;BME280;19508;42.578;23.416;2023-04-07T04:39:51;93410.59;;;1.52;57.57
33151;BME280;19508;42.578;23.416;2023-04-07T04:42:16;93413.25;;;1.65;57.30
33151;BME280;19508;42.578;23.416;2023-04-07T04:44:42;93415.72;;;2.05;55.84
33151;BME280;19508;42.578;23.416;2023-04-07T04:47:08;93411.97;;;1.74;56.22
33151;BME280;19508;42.578;23.416;2023-04-07T04:49:33;93419.63;;;2.02;55.38
33151;BME280;19508;42.578;23.416;2023-04-07T04:51:58;93412.19;;;2.24;54.47
33151;BME280;19508;42.578;23.416;2023-04-07T04:54:24;93423.06;;;2.47;54.57
33151;BME280;19508;42.578;23.416;2023-04-07T04:56:49;93421.63;;;2.51;54.62
33151;BME280;19508;42.578;23.416;2023-04-07T04:59:15;93434.78;;;2.71;54.72
33151;BME280;19508;42.578;23.416;2023-04-07T05:01:40;93432.34;;;2.70;54.19
33151;BME280;19508;42.578;23.416;2023-04-07T05:04:06;93421.53;;;2.65;53.40
33151;BME280;19508;42.578;23.416;2023-04-07T05:06:33;93415.72;;;2.49;54.35
33151;BME280;19508;42.578;23.416;2023-04-07T05:08:58;93422.19;;;2.92;53.66
33151;BME280;19508;42.578;23.416;2023-04-07T05:11:23;93422.19;;;3.17;52.48
33151;BME280;19508;42.578;23.416;2023-04-07T05:13:49;93415.97;;;3.23;52.55
33151;BME280;19508;42.578;23.416;2023-04-07T05:16:15;93420.06;;;3.25;52.75
33151;BME280;19508;42.578;23.416;2023-04-07T05:18:40;93427.41;;;3.66;51.91
33151;BME280;19508;42.578;23.416;2023-04-07T05:21:06;93426.84;;;4.19;51.72
33151;BME280;19508;42.578;23.416;2023-04-07T05:23:31;93420.97;;;4.59;49.00
33151;BME280;19508;42.578;23.416;2023-04-07T05:25:56;93432.63;;;4.76;48.14
33151;BME280;19508;42.578;23.416;2023-04-07T05:28:22;93429.56;;;5.03;47.32
33151;BME280;19508;42.578;23.416;2023-04-07T05:30:47;93434.06;;;4.91;47.25
33151;BME280;19508;42.578;23.416;2023-04-07T05:33:13;93436.56;;;4.74;47.94
33151;BME280;19508;42.578;23.416;2023-04-07T05:35:38;93439.25;;;4.74;48.27
33151;BME280;19508;42.578;23.416;2023-04-07T05:38:03;93437.88;;;4.83;48.29
33151;BME280;19508;42.578;23.416;2023-04-07T05:40:29;93428.59;;;4.86;48.75
33151;BME280;19508;42.578;23.416;2023-04-07T05:42:55;93432.06;;;4.86;48.55
33151;BME280;19508;42.578;23.416;2023-04-07T05:45:20;93425.50;;;4.89;48.47
33151;BME280;19508;42.578;23.416;2023-04-07T05:47:46;93424.19;;;5.21;47.10
33151;BME280;19508;42.578;23.416;2023-04-07T05:50:14;93421.41;;;5.40;46.29
33151;BME280;19508;42.578;23.416;2023-04-07T05:52:39;93420.22;;;5.24;46.57
33151;BME280;19508;42.578;23.416;2023-04-07T05:55:05;93434.06;;;5.32;46.17
33151;BME280;19508;42.578;23.416;2023-04-07T05:57:31;93427.66;;;5.33;46.58
33151;BME280;19508;42.578;23.416;2023-04-07T05:59:57;93431.63;;;5.43;45.22
33151;BME280;19508;42.578;23.416;2023-04-07T06:02:22;93437.56;;;5.56;45.75
33151;BME280;19508;42.578;23.416;2023-04-07T06:04:47;93430.00;;;5.65;44.90
33151;BME280;19508;42.578;23.416;2023-04-07T06:07:13;93427.31;;;5.88;44.76
33151;BME280;19508;42.578;23.416;2023-04-07T06:09:38;93425.69;;;6.11;44.01
33151;BME280;19508;42.578;23.416;2023-04-07T06:12:04;93413.97;;;6.97;42.93
33151;BME280;19508;42.578;23.416;2023-04-07T06:14:31;93418.28;;;7.82;41.46
33151;BME280;19508;42.578;23.416;2023-04-07T06:16:56;93421.63;;;8.99;38.07
33151;BME280;19508;42.578;23.416;2023-04-07T06:19:22;93427.97;;;9.79;36.48
33151;BME280;19508;42.578;23.416;2023-04-07T06:21:47;93420.19;;;9.82;35.35
33151;BME280;19508;42.578;23.416;2023-04-07T06:24:12;93421.66;;;9.63;36.07
33151;BME280;19508;42.578;23.416;2023-04-07T06:26:38;93417.31;;;9.57;36.84
33151;BME280;19508;42.578;23.416;2023-04-07T06:29:04;93415.78;;;9.66;36.25
33151;BME280;19508;42.578;23.416;2023-04-07T06:31:31;93413.16;;;10.61;34.81
33151;BME280;19508;42.578;23.416;2023-04-07T06:33:57;93404.06;;;10.77;33.77
33151;BME280;19508;42.578;23.416;2023-04-07T06:36:22;93400.06;;;10.95;35.06
33151;BME280;19508;42.578;23.416;2023-04-07T06:38:48;93407.28;;;10.79;34.22
33151;BME280;19508;42.578;23.416;2023-04-07T06:41:13;93406.75;;;10.82;32.72
33151;BME280;19508;42.578;23.416;2023-04-07T06:43:43;93404.06;;;10.87;33.92
33151;BME280;19508;42.578;23.416;2023-04-07T06:46:09;93407.63;;;11.13;33.21
33151;BME280;19508;42.578;23.416;2023-04-07T06:48:34;93401.75;;;11.72;31.58
33151;BME280;19508;42.578;23.416;2023-04-07T06:51:00;93400.88;;;11.00;31.99
33151;BME280;19508;42.578;23.416;2023-04-07T06:53:25;93397.69;;;11.95;30.65
33151;BME280;19508;42.578;23.416;2023-04-07T06:55:50;93406.81;;;12.35;30.91
33151;BME280;19508;42.578;23.416;2023-04-07T06:58:16;93410.09;;;11.61;31.33
33151;BME280;19508;42.578;23.416;2023-04-07T07:00:41;93405.78;;;11.44;31.56
33151;BME280;19508;42.578;23.416;2023-04-07T07:03:07;93403.63;;;11.62;31.43
33151;BME280;19508;42.578;23.416;2023-04-07T07:05:32;93404.19;;;11.38;31.75
33151;BME280;19508;42.578;23.416;2023-04-07T07:07:57;93401.44;;;11.02;31.76
33151;BME280;19508;42.578;23.416;2023-04-07T07:10:23;93410.09;;;12.17;33.30
33151;BME280;19508;42.578;23.416;2023-04-07T07:12:49;93399.09;;;12.78;30.46
33151;BME280;19508;42.578;23.416;2023-04-07T07:15:14;93410.69;;;11.83;31.13
33151;BME280;19508;42.578;23.416;2023-04-07T07:17:40;93415.88;;;10.76;31.91
33151;BME280;19508;42.578;23.416;2023-04-07T07:20:06;93400.94;;;11.62;33.11
33151;BME280;19508;42.578;23.416;2023-04-07T07:22:31;93401.47;;;11.53;33.57
33151;BME280;19508;42.578;23.416;2023-04-07T07:24:57;93405.78;;;12.16;32.27
33151;BME280;19508;42.578;23.416;2023-04-07T07:27:22;93413.63;;;12.02;32.56
33151;BME280;19508;42.578;23.416;2023-04-07T07:29:47;93411.75;;;11.97;33.21
33151;BME280;19508;42.578;23.416;2023-04-07T07:32:13;93416.00;;;13.53;31.85
33151;BME280;19508;42.578;23.416;2023-04-07T07:34:38;93396.97;;;14.26;29.66
33151;BME280;19508;42.578;23.416;2023-04-07T07:37:04;93418.34;;;13.99;29.51
33151;BME280;19508;42.578;23.416;2023-04-07T07:39:29;93415.66;;;14.57;29.61
33151;BME280;19508;42.578;23.416;2023-04-07T07:41:54;93422.47;;;15.21;27.88
33151;BME280;19508;42.578;23.416;2023-04-07T07:44:20;93427.84;;;13.62;31.10
33151;BME280;19508;42.578;23.416;2023-04-07T07:46:47;93426.47;;;13.25;30.56
33151;BME280;19508;42.578;23.416;2023-04-07T07:49:13;93438.94;;;13.16;30.98
33151;BME280;19508;42.578;23.416;2023-04-07T07:51:39;93419.16;;;12.61;30.89
33151;BME280;19508;42.578;23.416;2023-04-07T07:54:04;93427.25;;;10.98;34.45
33151;BME280;19508;42.578;23.416;2023-04-07T07:56:29;93426.19;;;10.94;34.45
33151;BME280;19508;42.578;23.416;2023-04-07T07:58:55;93436.78;;;11.62;34.28
33151;BME280;19508;42.578;23.416;2023-04-07T08:01:20;93432.50;;;12.02;33.37
33151;BME280;19508;42.578;23.416;2023-04-07T08:03:46;93428.69;;;11.62;33.44
33151;BME280;19508;42.578;23.416;2023-04-07T08:06:11;93418.34;;;10.93;32.72
33151;BME280;19508;42.578;23.416;2023-04-07T08:08:37;93437.44;;;9.86;34.75
33151;BME280;19508;42.578;23.416;2023-04-07T08:11:03;93431.72;;;9.41;34.87
33151;BME280;19508;42.578;23.416;2023-04-07T08:13:28;93434.47;;;9.51;35.13
33151;BME280;19508;42.578;23.416;2023-04-07T08:15:53;93423.63;;;10.10;34.03
33151;BME280;19508;42.578;23.416;2023-04-07T08:18:19;93426.84;;;10.54;33.15
33151;BME280;19508;42.578;23.416;2023-04-07T08:20:45;93430.22;;;10.29;33.94
33151;BME280;19508;42.578;23.416;2023-04-07T08:23:11;93418.94;;;10.37;33.52
33151;BME280;19508;42.578;23.416;2023-04-07T08:25:36;93417.16;;;10.58;33.27
33151;BME280;19508;42.578;23.416;2023-04-07T08:28:04;93418.78;;;10.12;34.02
33151;BME280;19508;42.578;23.416;2023-04-07T08:30:30;93419.78;;;10.43;32.81
33151;BME280;19508;42.578;23.416;2023-04-07T08:32:55;93419.38;;;10.19;34.56
33151;BME280;19508;42.578;23.416;2023-04-07T08:35:21;93413.06;;;10.45;34.15
33151;BME280;19508;42.578;23.416;2023-04-07T08:37:46;93418.34;;;10.93;34.33
33151;BME280;19508;42.578;23.416;2023-04-07T08:40:13;93406.84;;;12.25;32.69
33151;BME280;19508;42.578;23.416;2023-04-07T08:42:45;93384.44;;;12.24;32.79
33151;BME280;19508;42.578;23.416;2023-04-07T08:45:11;93394.84;;;12.61;31.23
33151;BME280;19508;42.578;23.416;2023-04-07T08:47:39;93387.81;;;13.15;30.05
33151;BME280;19508;42.578;23.416;2023-04-07T08:50:08;93396.75;;;14.76;29.25
33151;BME280;19508;42.578;23.416;2023-04-07T08:52:43;93391.56;;;15.22;28.40
33151;BME280;19508;42.578;23.416;2023-04-07T08:55:09;93408.59;;;14.27;31.71
33151;BME280;19508;42.578;23.416;2023-04-07T08:57:35;93408.50;;;14.13;28.74
33151;BME280;19508;42.578;23.416;2023-04-07T09:00:02;93415.97;;;12.49;30.20
33151;BME280;19508;42.578;23.416;2023-04-07T09:02:35;93412.63;;;12.73;30.81
33151;BME280;19508;42.578;23.416;2023-04-07T09:05:03;93416.31;;;12.17;32.22
33151;BME280;19508;42.578;23.416;2023-04-07T09:07:31;93408.50;;;12.05;31.29
33151;BME280;19508;42.578;23.416;2023-04-07T09:09:57;93401.47;;;11.48;32.50
33151;BME280;19508;42.578;23.416;2023-04-07T09:12:24;93409.56;;;11.58;32.25
33151;BME280;19508;42.578;23.416;2023-04-07T09:14:49;93409.81;;;11.52;31.82
33151;BME280;19508;42.578;23.416;2023-04-07T09:17:15;93405.81;;;11.65;31.85
33151;BME280;19508;42.578;23.416;2023-04-07T09:19:40;93421.44;;;11.73;31.63
33151;BME280;19508;42.578;23.416;2023-04-07T09:22:05;93425.22;;;12.23;31.11
33151;BME280;19508;42.578;23.416;2023-04-07T09:24:32;93420.25;;;12.55;30.05
33151;BME280;19508;42.578;23.416;2023-04-07T09:27:15;93416.88;;;12.89;31.34
33151;BME280;19508;42.578;23.416;2023-04-07T09:29:42;93426.69;;;13.34;30.25
33151;BME280;19508;42.578;23.416;2023-04-07T09:32:09;93428.22;;;13.50;28.60
33151;BME280;19508;42.578;23.416;2023-04-07T09:34:37;93426.06;;;13.81;28.00
33151;BME280;19508;42.578;23.416;2023-04-07T09:37:05;93425.75;;;14.17;28.43
33151;BME280;19508;42.578;23.416;2023-04-07T09:39:30;93425.84;;;13.39;28.89
33151;BME280;19508;42.578;23.416;2023-04-07T09:41:56;93428.03;;;13.37;29.13
33151;BME280;19508;42.578;23.416;2023-04-07T09:44:22;93431.13;;;13.59;29.54
33151;BME280;19508;42.578;23.416;2023-04-07T09:49:17;93437.63;;;12.24;30.79
33151;BME280;19508;42.578;23.416;2023-04-07T09:51:58;93440.84;;;12.26;31.16
33151;BME280;19508;42.578;23.416;2023-04-07T09:54:35;93438.13;;;12.36;31.26
33151;BME280;19508;42.578;23.416;2023-04-07T09:57:02;93440.06;;;11.74;32.69
33151;BME280;19508;42.578;23.416;2023-04-07T09:59:29;93441.97;;;11.99;31.77
33151;BME280;19508;42.578;23.416;2023-04-07T10:01:55;93448.44;;;11.93;30.89
33151;BME280;19508;42.578;23.416;2023-04-07T10:04:21;93439.25;;;11.84;31.17
33151;BME280;19508;42.578;23.416;2023-04-07T10:06:47;93439.09;;;10.92;33.82
33151;BME280;19508;42.578;23.416;2023-04-07T10:09:13;93438.63;;;11.16;32.92
33151;BME280;19508;42.578;23.416;2023-04-07T10:11:41;93446.72;;;11.21;34.16
33151;BME280;19508;42.578;23.416;2023-04-07T10:14:10;93447.84;;;11.40;32.31
33151;BME280;19508;42.578;23.416;2023-04-07T10:16:39;93449.41;;;11.26;33.19
33151;BME280;19508;42.578;23.416;2023-04-07T10:19:07;93444.81;;;11.16;33.00
33151;BME280;19508;42.578;23.416;2023-04-07T10:21:38;93453.72;;;10.49;35.16
33151;BME280;19508;42.578;23.416;2023-04-07T10:24:17;93449.91;;;11.02;35.01
33151;BME280;19508;42.578;23.416;2023-04-07T10:26:55;93448.25;;;10.91;35.00
33151;BME280;19508;42.578;23.416;2023-04-07T10:29:23;93454.88;;;11.46;33.30
33151;BME280;19508;42.578;23.416;2023-04-07T10:31:50;93453.72;;;11.17;33.26
33151;BME280;19508;42.578;23.416;2023-04-07T10:34:16;93454.41;;;10.82;33.70
33151;BME280;19508;42.578;23.416;2023-04-07T10:37:08;93459.63;;;11.09;33.89
33151;BME280;19508;42.578;23.416;2023-04-07T10:39:35;93458.84;;;11.23;34.74
33151;BME280;19508;42.578;23.416;2023-04-07T10:42:01;93470.88;;;10.85;33.59
33151;BME280;19508;42.578;23.416;2023-04-07T10:44:46;93471.41;;;10.92;34.32
33151;BME280;19508;42.578;23.416;2023-04-07T10:47:13;93465.09;;;11.39;33.70
33151;BME280;19508;42.578;23.416;2023-04-07T10:49:38;93465.66;;;11.56;32.41
33151;BME280;19508;42.578;23.416;2023-04-07T10:52:23;93464.81;;;11.36;33.80
33151;BME280;19508;42.578;23.416;2023-04-07T11:00:41;93474.53;;;10.64;33.79
33151;BME280;19508;42.578;23.416;2023-04-07T11:03:11;93468.84;;;11.28;33.57
33151;BME280;19508;42.578;23.416;2023-04-07T11:05:39;93467.06;;;11.84;32.98
33151;BME280;19508;42.578;23.416;2023-04-07T11:08:04;93459.78;;;12.00;32.13
33151;BME280;19508;42.578;23.416;2023-04-07T11:10:32;93466.75;;;12.22;32.10
33151;BME280;19508;42.578;23.416;2023-04-07T11:13:07;93472.69;;;11.68;33.17
33151;BME280;19508;42.578;23.416;2023-04-07T11:15:36;93462.13;;;11.41;31.90
33151;BME280;19508;42.578;23.416;2023-04-07T11:18:31;93473.25;;;12.00;32.56
33151;BME280;19508;42.578;23.416;2023-04-07T11:20:57;93464.56;;;12.39;31.29
33151;BME280;19508;42.578;23.416;2023-04-07T11:23:27;93458.38;;;13.18;30.14
33151;BME280;19508;42.578;23.416;2023-04-07T11:26:00;93462.28;;;12.92;30.00
33151;BME280;19508;42.578;23.416;2023-04-07T11:28:26;93464.34;;;13.20;30.96
33151;BME280;19508;42.578;23.416;2023-04-07T11:30:53;93472.19;;;13.12;31.61
33151;BME280;19508;42.578;23.416;2023-04-07T11:33:24;93476.78;;;13.11;30.89
33151;BME280;19508;42.578;23.416;2023-04-07T11:35:52;93470.53;;;13.21;31.48
33151;BME280;19508;42.578;23.416;2023-04-07T11:38:20;93472.00;;;12.93;32.33
33151;BME280;19508;42.578;23.416;2023-04-07T11:40:45;93473.47;;;11.78;33.16
33151;BME280;19508;42.578;23.416;2023-04-07T11:43:22;93476.47;;;11.87;34.10
33151;BME280;19508;42.578;23.416;2023-04-07T11:46:09;93469.22;;;12.08;34.05
33151;BME280;19508;42.578;23.416;2023-04-07T11:48:36;93467.84;;;12.26;35.42
33151;BME280;19508;42.578;23.416;2023-04-07T11:51:02;93451.59;;;12.56;33.34
33151;BME280;19508;42.578;23.416;2023-04-07T11:53:29;93458.94;;;12.20;33.72
33151;BME280;19508;42.578;23.416;2023-04-07T11:56:06;93463.00;;;11.92;33.10
33151;BME280;19508;42.578;23.416;2023-04-07T11:58:34;93462.44;;;11.54;34.45
33151;BME280;19508;42.578;23.416;2023-04-07T12:01:04;93466.78;;;12.01;33.75
33151;BME280;19508;42.578;23.416;2023-04-07T12:03:35;93474.88;;;11.96;34.98
33151;BME280;19508;42.578;23.416;2023-04-07T12:06:02;93470.28;;;12.02;34.37
33151;BME280;19508;42.578;23.416;2023-04-07T12:08:41;93460.56;;;12.11;33.55
33151;BME280;19508;42.578;23.416;2023-04-07T12:11:08;93472.19;;;12.01;34.44
33151;BME280;19508;42.578;23.416;2023-04-07T12:13:36;93474.88;;;11.86;33.55
33151;BME280;19508;42.578;23.416;2023-04-07T12:16:02;93460.72;;;11.13;36.19
33151;BME280;19508;42.578;23.416;2023-04-07T12:18:28;93461.88;;;11.68;35.04
33151;BME280;19508;42.578;23.416;2023-04-07T12:20:54;93452.16;;;11.41;35.92
33151;BME280;19508;42.578;23.416;2023-04-07T12:23:21;93467.28;;;11.57;35.80
33151;BME280;19508;42.578;23.416;2023-04-07T12:25:46;93467.56;;;11.66;35.01
33151;BME280;19508;42.578;23.416;2023-04-07T12:28:11;93474.84;;;11.66;34.92
33151;BME280;19508;42.578;23.416;2023-04-07T12:30:37;93470.84;;;11.83;35.22
33151;BME280;19508;42.578;23.416;2023-04-07T12:33:02;93471.59;;;11.74;34.79
33151;BME280;19508;42.578;23.416;2023-04-07T12:35:28;93474.22;;;11.23;36.77
33151;BME280;19508;42.578;23.416;2023-04-07T12:37:54;93482.34;;;11.38;37.06
33151;BME280;19508;42.578;23.416;2023-04-07T12:40:21;93481.22;;;11.24;36.62
33151;BME280;19508;42.578;23.416;2023-04-07T12:42:46;93477.97;;;11.27;37.71
33151;BME280;19508;42.578;23.416;2023-04-07T12:45:12;93484.28;;;11.73;37.17
33151;BME280;19508;42.578;23.416;2023-04-07T12:47:37;93482.41;;;11.74;36.17
33151;BME280;19508;42.578;23.416;2023-04-07T12:50:03;93485.13;;;11.89;36.20
33151;BME280;19508;42.578;23.416;2023-04-07T12:52:28;93474.28;;;11.58;35.90
33151;BME280;19508;42.578;23.416;2023-04-07T12:54:54;93486.69;;;11.70;36.58
33151;BME280;19508;42.578;23.416;2023-04-07T12:57:19;93479.75;;;11.89;35.99
33151;BME280;19508;42.578;23.416;2023-04-07T12:59:45;93485.25;;;11.11;36.94
33151;BME280;19508;42.578;23.416;2023-04-07T13:02:10;93480.91;;;11.05;38.34
33151;BME280;19508;42.578;23.416;2023-04-07T13:04:38;93472.06;;;11.25;37.14
33151;BME280;19508;42.578;23.416;2023-04-07T13:07:09;93484.47;;;11.21;37.30
33151;BME280;19508;42.578;23.416;2023-04-07T13:09:34;93476.44;;;11.46;36.92
33151;BME280;19508;42.578;23.416;2023-04-07T13:12:01;93483.19;;;11.74;36.42